Time;durP1;ratioP1;P1;durP2;ratioP2;P2;SDS_P1;SDS_P2;PMS_P1;PMS_P2;Temp;Humidity;BMP_temperature;BMP_pressure;BME280_temperature;BME280_humidity;BME280_pressure;Samples;Min_cycle;Max_cycle;Signal;HPM_P1;HPM_P2
2022/07/12 00:00:10;;;;;;;4.63;1.25;;;15.00;99.90;;;;;;4996981;28;20314;-77
2022/07/12 00:02:59;;;;;;;2.90;1.30;;;14.90;99.90;;;;;;4997555;28;20305;-77
2022/07/12 00:05:49;;;;;;;3.80;1.48;;;15.00;99.90;;;;;;4985500;28;20368;-77
2022/07/12 00:08:38;;;;;;;1.80;1.52;;;15.00;99.90;;;;;;4988891;28;20785;-77
2022/07/12 00:11:26;;;;;;;7.60;2.15;;;15.00;99.90;;;;;;5002408;28;20238;-77
2022/07/12 00:14:16;;;;;;;2.47;1.48;;;15.00;99.90;;;;;;4996813;28;20372;-75
2022/07/12 00:17:04;;;;;;;2.67;1.38;;;15.10;99.90;;;;;;4996088;28;20222;-75
2022/07/12 00:19:53;;;;;;;2.08;1.30;;;15.00;99.90;;;;;;5003027;28;20257;-77
2022/07/12 00:22:47;;;;;;;2.10;1.50;;;15.00;99.90;;;;;;4998386;28;20226;-78
2022/07/12 00:25:36;;;;;;;1.95;1.50;;;15.10;99.90;;;;;;4986960;28;20230;-76
2022/07/12 00:28:24;;;;;;;6.00;1.52;;;14.90;99.90;;;;;;4998908;28;20234;-75
2022/07/12 00:31:16;;;;;;;2.53;1.40;;;14.90;99.90;;;;;;4982068;28;20218;-75
2022/07/12 00:34:05;;;;;;;2.58;1.50;;;14.90;99.90;;;;;;4997025;28;20227;-75
2022/07/12 00:36:54;;;;;;;2.47;1.42;;;14.90;99.90;;;;;;4996642;28;20219;-75
2022/07/12 00:39:46;;;;;;;3.58;1.50;;;14.80;99.90;;;;;;4997324;28;20756;-74
2022/07/12 00:42:35;;;;;;;2.08;1.50;;;14.80;99.90;;;;;;4994954;28;20218;-74
2022/07/12 00:45:24;;;;;;;2.10;1.52;;;14.80;99.90;;;;;;4982820;28;20765;-76
2022/07/12 00:48:13;;;;;;;2.08;1.50;;;14.80;99.90;;;;;;4985471;28;20229;-76
2022/07/12 00:51:02;;;;;;;4.05;1.88;;;14.90;99.90;;;;;;5008864;28;20241;-76
2022/07/12 00:53:52;;;;;;;5.47;1.77;;;14.80;99.90;;;;;;5009101;28;20228;-74
2022/07/12 00:56:42;;;;;;;4.00;1.77;;;14.70;99.90;;;;;;4999751;28;20218;-73
2022/07/12 00:59:31;;;;;;;5.47;1.48;;;14.70;99.90;;;;;;4999234;28;20224;-76
2022/07/12 01:02:19;;;;;;;1.90;1.50;;;14.70;99.90;;;;;;4996693;28;20264;-76
2022/07/12 01:05:09;;;;;;;3.35;1.90;;;14.70;99.90;;;;;;4998600;28;20939;-77
2022/07/12 01:07:58;;;;;;;2.05;1.60;;;14.70;99.90;;;;;;5000956;28;20747;-77
2022/07/12 01:10:49;;;;;;;3.80;1.67;;;14.70;99.90;;;;;;5001418;28;20230;-78
2022/07/12 01:13:39;;;;;;;2.33;1.75;;;14.60;99.90;;;;;;5000653;28;20222;-78
2022/07/12 01:16:28;;;;;;;5.32;2.17;;;14.60;99.90;;;;;;4998583;28;20222;-78
2022/07/12 01:19:21;;;;;;;2.58;2.10;;;14.60;99.90;;;;;;5002466;28;20581;-78
2022/07/12 01:22:11;;;;;;;3.80;1.80;;;14.70;99.90;;;;;;4999939;28;20222;-77
2022/07/12 01:25:02;;;;;;;3.83;1.70;;;14.60;99.90;;;;;;4998567;28;20995;-77
2022/07/12 01:27:51;;;;;;;4.05;1.85;;;14.60;99.90;;;;;;5014287;28;20218;-77
2022/07/12 01:30:41;;;;;;;3.08;1.90;;;14.60;99.90;;;;;;4998050;28;20226;-77
2022/07/12 01:33:30;;;;;;;2.85;1.55;;;14.60;99.90;;;;;;5000019;28;20230;-77
2022/07/12 01:36:19;;;;;;;3.47;2.00;;;14.60;99.90;;;;;;4986858;28;20222;-77
2022/07/12 01:39:08;;;;;;;4.00;1.70;;;14.60;99.90;;;;;;4999663;28;20236;-78
2022/07/12 01:41:58;;;;;;;2.05;1.65;;;14.60;99.90;;;;;;5002079;28;20222;-78
2022/07/12 01:44:47;;;;;;;3.65;1.75;;;14.60;99.90;;;;;;4993403;28;20226;-77
2022/07/12 01:47:36;;;;;;;4.40;1.92;;;14.50;99.90;;;;;;5018641;28;20237;-78
2022/07/12 01:50:25;;;;;;;4.80;1.95;;;14.50;99.90;;;;;;5029814;28;20233;-78
2022/07/12 01:53:15;;;;;;;2.97;1.90;;;14.60;99.90;;;;;;5019400;28;20223;-76
2022/07/12 01:56:04;;;;;;;4.00;1.80;;;14.50;99.90;;;;;;5005851;28;21653;-77
2022/07/12 01:58:54;;;;;;;3.72;2.10;;;14.50;99.90;;;;;;5019221;28;20224;-79
2022/07/12 02:01:44;;;;;;;5.75;2.47;;;14.60;99.90;;;;;;5003635;28;20221;-79
2022/07/12 02:04:33;;;;;;;9.30;2.03;;;14.50;99.90;;;;;;5022565;28;20301;-77
2022/07/12 02:07:23;;;;;;;3.00;2.03;;;14.50;99.90;;;;;;5004439;28;22044;-77
2022/07/12 02:10:11;;;;;;;3.97;2.30;;;14.50;99.90;;;;;;5020654;28;20221;-77
2022/07/12 02:13:07;;;;;;;5.28;2.28;;;14.40;99.90;;;;;;5004666;28;20232;-79
2022/07/12 02:16:00;;;;;;;3.45;2.08;;;14.50;99.90;;;;;;5004177;28;20888;-78
2022/07/12 02:18:49;;;;;;;5.13;2.40;;;14.40;99.90;;;;;;5001719;28;20230;-76
2022/07/12 02:21:39;;;;;;;2.83;2.20;;;14.40;99.90;;;;;;5016981;28;20245;-78
2022/07/12 02:24:31;;;;;;;6.90;2.50;;;14.50;99.90;;;;;;5014342;28;20214;-78
2022/07/12 02:27:19;;;;;;;4.55;2.40;;;14.50;99.90;;;;;;5022109;28;20253;-80
2022/07/12 02:30:09;;;;;;;4.15;1.98;;;14.50;99.90;;;;;;5007705;28;20225;-80
2022/07/12 02:32:59;;;;;;;3.05;2.22;;;14.50;99.90;;;;;;5016489;28;20229;-79
2022/07/12 02:35:47;;;;;;;3.88;2.30;;;14.50;99.90;;;;;;5001988;28;20229;-79
2022/07/12 02:38:36;;;;;;;3.95;2.10;;;14.60;99.90;;;;;;5017810;28;20223;-79
2022/07/12 02:41:28;;;;;;;6.32;2.47;;;14.60;99.90;;;;;;5017600;28;20221;-75
2022/07/12 02:44:17;;;;;;;6.10;2.53;;;14.70;99.90;;;;;;5003941;28;20221;-74
2022/07/12 02:47:05;;;;;;;3.78;2.63;;;14.70;99.90;;;;;;5018609;28;20224;-75
2022/07/12 02:49:59;;;;;;;5.07;2.20;;;14.80;99.90;;;;;;5004264;28;20229;-83
2022/07/12 02:52:47;;;;;;;3.47;2.10;;;14.80;99.90;;;;;;5005746;28;20228;-82
2022/07/12 02:55:38;;;;;;;4.15;2.10;;;14.90;99.90;;;;;;5014040;28;20317;-76
2022/07/12 02:58:27;;;;;;;6.75;2.30;;;14.90;99.90;;;;;;5007774;28;20319;-75
2022/07/12 03:01:16;;;;;;;2.42;1.95;;;14.90;99.90;;;;;;5021307;28;20233;-76
2022/07/12 03:04:05;;;;;;;3.22;1.77;;;14.90;99.90;;;;;;5005095;28;20233;-76
2022/07/12 03:06:55;;;;;;;6.85;2.22;;;14.90;99.90;;;;;;5006679;28;20228;-76
2022/07/12 03:09:43;;;;;;;3.85;2.00;;;14.90;99.90;;;;;;5017116;28;20240;-75
2022/07/12 03:12:32;;;;;;;4.72;2.30;;;15.00;99.90;;;;;;5016855;28;20226;-76
2022/07/12 03:15:20;;;;;;;4.93;2.75;;;15.00;99.90;;;;;;5021760;28;20232;-78
2022/07/12 03:18:10;;;;;;;4.40;2.40;;;15.00;99.90;;;;;;5038502;28;20715;-79
2022/07/12 03:21:02;;;;;;;6.10;2.70;;;15.10;99.90;;;;;;5025403;28;20280;-78
2022/07/12 03:23:55;;;;;;;2.47;2.17;;;15.10;99.90;;;;;;5006051;28;20225;-77
2022/07/12 03:26:44;;;;;;;3.95;2.55;;;15.10;99.90;;;;;;5014257;28;20233;-72
2022/07/12 03:29:33;;;;;;;10.63;2.90;;;15.10;99.90;;;;;;5009063;28;20756;-76
2022/07/12 03:32:21;;;;;;;5.63;2.28;;;15.10;99.90;;;;;;5008924;28;20614;-76
2022/07/12 03:35:10;;;;;;;4.93;2.38;;;15.20;99.90;;;;;;5020883;28;20301;-76
2022/07/12 03:37:59;;;;;;;2.38;2.10;;;15.20;99.90;;;;;;5007580;28;20752;-76
2022/07/12 03:40:52;;;;;;;3.35;2.45;;;15.20;99.90;;;;;;5018505;28;20218;-76
2022/07/12 03:43:40;;;;;;;4.10;2.60;;;15.20;99.90;;;;;;5005957;28;20217;-75
2022/07/12 03:46:29;;;;;;;2.53;2.33;;;15.20;99.90;;;;;;5016793;28;20226;-76
2022/07/12 03:49:21;;;;;;;4.93;2.80;;;15.20;99.90;;;;;;5020099;28;20251;-75
2022/07/12 03:52:09;;;;;;;5.45;2.45;;;15.30;99.90;;;;;;5026000;28;20287;-76
2022/07/12 03:54:58;;;;;;;5.38;2.38;;;15.20;99.90;;;;;;5019208;28;20221;-77
2022/07/12 03:57:49;;;;;;;5.72;2.50;;;15.20;99.90;;;;;;5021337;28;20236;-77
2022/07/12 04:00:42;;;;;;;6.05;2.70;;;15.30;99.90;;;;;;5004735;28;20233;-76
2022/07/12 04:03:31;;;;;;;3.67;2.60;;;15.40;99.90;;;;;;5020611;28;20371;-76
2022/07/12 04:06:20;;;;;;;3.42;2.65;;;15.40;99.90;;;;;;5018694;28;20221;-76
2022/07/12 04:09:08;;;;;;;5.13;2.55;;;15.50;99.90;;;;;;5022270;28;20221;-74
2022/07/12 04:11:57;;;;;;;4.57;2.92;;;15.40;99.90;;;;;;5017226;28;20226;-74
2022/07/12 04:14:47;;;;;;;4.78;2.40;;;15.50;99.90;;;;;;5017761;28;20723;-73
2022/07/12 04:17:36;;;;;;;7.53;2.97;;;15.60;99.90;;;;;;5018372;28;20587;-75
2022/07/12 04:20:24;;;;;;;3.90;3.00;;;15.60;99.90;;;;;;5021643;28;20718;-74
2022/07/12 04:23:16;;;;;;;4.28;2.50;;;15.70;99.90;;;;;;5007449;28;20236;-74
2022/07/12 04:26:05;;;;;;;5.35;3.00;;;15.80;99.90;;;;;;5018416;28;20623;-74
2022/07/12 04:28:53;;;;;;;6.40;2.80;;;15.80;99.90;;;;;;5016722;28;20230;-74
2022/07/12 04:31:49;;;;;;;4.50;2.70;;;15.90;99.90;;;;;;5005260;28;20237;-77
2022/07/12 04:34:38;;;;;;;5.15;2.88;;;15.90;99.90;;;;;;5018748;28;20227;-78
2022/07/12 04:37:30;;;;;;;4.50;2.90;;;15.80;99.90;;;;;;5017731;28;20248;-78
2022/07/12 04:40:19;;;;;;;4.32;2.70;;;15.80;99.90;;;;;;5015918;28;20230;-77
2022/07/12 04:43:08;;;;;;;7.30;2.85;;;15.80;99.90;;;;;;5021471;28;20221;-75
2022/07/12 04:45:56;;;;;;;10.43;2.88;;;15.80;99.90;;;;;;5017029;28;20221;-75
2022/07/12 04:48:46;;;;;;;3.90;2.70;;;15.80;99.90;;;;;;5019905;28;20217;-76
2022/07/12 04:51:35;;;;;;;5.00;3.05;;;15.90;99.90;;;;;;5018128;28;20218;-77
2022/07/12 04:54:24;;;;;;;3.70;3.03;;;15.80;99.90;;;;;;5015005;28;20230;-76
2022/07/12 04:57:12;;;;;;;4.93;3.20;;;15.90;99.90;;;;;;5022603;28;20225;-78
2022/07/12 05:00:01;;;;;;;4.78;2.92;;;15.90;99.90;;;;;;5005363;28;20240;-79
2022/07/12 05:02:50;;;;;;;8.85;3.10;;;15.90;99.90;;;;;;5021740;28;21040;-78
2022/07/12 05:05:41;;;;;;;7.05;3.13;;;16.00;99.90;;;;;;5016057;28;20265;-78
2022/07/12 05:08:30;;;;;;;7.38;3.00;;;16.00;99.90;;;;;;5003901;28;20217;-79
2022/07/12 05:11:18;;;;;;;4.10;3.25;;;15.90;99.90;;;;;;5018593;28;20210;-77
2022/07/12 05:14:07;;;;;;;8.70;3.60;;;16.00;99.90;;;;;;5024613;28;20226;-78
2022/07/12 05:16:56;;;;;;;5.72;2.72;;;16.00;99.90;;;;;;5016568;28;20222;-80
2022/07/12 05:19:44;;;;;;;6.65;3.45;;;16.10;99.90;;;;;;5034776;28;20600;-80
2022/07/12 05:22:34;;;;;;;6.70;3.50;;;16.20;99.90;;;;;;5004938;28;20226;-80
2022/07/12 05:25:23;;;;;;;5.55;3.00;;;16.20;99.90;;;;;;5029451;28;20232;-81
2022/07/12 05:28:11;;;;;;;7.43;3.30;;;16.20;99.90;;;;;;5031057;28;20229;-81
2022/07/12 05:31:06;;;;;;;7.55;3.25;;;16.20;99.90;;;;;;5011303;28;20233;-79
2022/07/12 05:33:58;;;;;;;7.30;3.15;;;16.30;99.90;;;;;;5013911;28;20323;-76
2022/07/12 05:36:47;;;;;;;4.85;2.70;;;16.40;99.90;;;;;;5015305;28;20310;-76
2022/07/12 05:39:37;;;;;;;6.28;2.83;;;16.50;99.90;;;;;;5006228;28;20221;-81
2022/07/12 05:42:32;;;;;;;4.68;3.17;;;16.60;99.90;;;;;;5019763;28;20657;-80
2022/07/12 05:45:23;;;;;;;4.40;2.60;;;16.70;99.90;;;;;;5021106;28;20224;-72
2022/07/12 05:48:12;;;;;;;4.30;2.83;;;16.80;99.90;;;;;;5017437;28;20319;-73
2022/07/12 05:53:21;;;;;;;6.35;3.05;;;16.90;99.90;;;;;;5006130;28;20304;-79
2022/07/12 05:54:10;;;;;;;6.25;2.58;;;17.10;99.90;;;;;;5010892;28;21153;-76
2022/07/12 05:57:00;;;;;;;5.40;2.30;;;17.20;99.90;;;;;;5024274;28;20280;-75
2022/07/12 05:59:49;;;;;;;3.80;2.40;;;17.20;99.90;;;;;;5009115;28;20225;-75
2022/07/12 06:02:37;;;;;;;4.22;2.20;;;17.20;99.90;;;;;;5015032;28;20319;-77
2022/07/12 06:05:26;;;;;;;2.83;2.03;;;17.20;99.90;;;;;;5014321;28;20225;-76
2022/07/12 06:08:15;;;;;;;5.43;2.40;;;17.20;99.90;;;;;;5015108;28;20233;-73
2022/07/12 06:11:04;;;;;;;3.05;1.95;;;17.30;99.90;;;;;;5018391;28;20736;-76
2022/07/12 06:13:54;;;;;;;3.08;1.90;;;17.40;99.90;;;;;;5014660;28;20222;-78
2022/07/12 06:16:42;;;;;;;5.40;2.20;;;17.50;99.90;;;;;;5018178;28;20221;-75
2022/07/12 06:19:31;;;;;;;2.53;1.90;;;17.40;99.90;;;;;;5021539;28;20246;-76
2022/07/12 06:22:21;;;;;;;4.03;2.03;;;17.40;99.90;;;;;;5014684;28;20234;-76
2022/07/12 06:25:10;;;;;;;2.70;1.70;;;17.30;99.90;;;;;;5016219;28;20228;-74
2022/07/12 06:28:18;;;;;;;2.00;1.80;;;17.30;99.90;;;;;;5013469;28;20222;-75
2022/07/12 06:31:08;;;;;;;4.28;1.80;;;17.20;99.90;;;;;;5024211;28;20229;-75
2022/07/12 06:33:57;;;;;;;8.43;2.03;;;17.20;99.90;;;;;;5010761;28;20229;-76
2022/07/12 06:36:45;;;;;;;4.60;1.77;;;17.30;99.90;;;;;;5024669;28;20220;-75
2022/07/12 06:39:34;;;;;;;4.07;2.00;;;17.50;99.90;;;;;;5023692;28;20237;-74
2022/07/12 06:42:23;;;;;;;2.75;1.40;;;17.70;99.90;;;;;;5004162;28;20221;-76
2022/07/12 06:45:14;;;;;;;7.35;1.95;;;17.90;99.90;;;;;;5016496;28;20225;-75
2022/07/12 06:48:05;;;;;;;3.78;1.95;;;18.10;99.90;;;;;;5010794;28;20221;-74
2022/07/12 06:50:54;;;;;;;3.65;1.80;;;18.20;99.90;;;;;;5012327;28;20596;-75
2022/07/12 06:53:42;;;;;;;4.53;1.40;;;18.40;99.90;;;;;;5024107;28;20772;-74
2022/07/12 06:56:31;;;;;;;5.75;1.40;;;18.60;99.90;;;;;;5026472;28;20216;-75
2022/07/12 06:59:20;;;;;;;3.22;1.50;;;18.70;99.90;;;;;;5024789;28;20225;-75
2022/07/12 07:02:08;;;;;;;3.92;1.70;;;18.80;99.90;;;;;;5018819;28;20221;-74
2022/07/12 07:05:01;;;;;;;5.07;1.50;;;19.10;99.90;;;;;;5024938;28;20248;-76
2022/07/12 07:07:50;;;;;;;5.22;1.73;;;19.00;99.90;;;;;;5024180;28;20218;-75
2022/07/12 07:10:38;;;;;;;5.40;1.48;;;19.00;99.90;;;;;;5023742;28;20228;-75
2022/07/12 07:13:27;;;;;;;4.50;1.83;;;19.10;99.90;;;;;;5023585;28;20476;-76
2022/07/12 07:16:16;;;;;;;6.05;1.55;;;19.20;99.90;;;;;;5005036;28;21126;-75
2022/07/12 07:19:05;;;;;;;1.75;1.30;;;19.20;99.90;;;;;;5010975;28;20229;-76
2022/07/12 07:21:56;;;;;;;3.45;1.50;;;19.20;99.90;;;;;;5005302;28;20726;-76
2022/07/12 07:24:44;;;;;;;3.17;1.20;;;19.50;99.90;;;;;;5021572;28;20700;-74
2022/07/12 07:27:33;;;;;;;3.42;1.50;;;19.60;99.90;;;;;;5023422;28;20708;-77
2022/07/12 07:33:28;;;;;;;2.35;1.20;;;19.70;99.90;;;;;;5019719;28;20233;-74
2022/07/12 07:36:17;;;;;;;2.08;1.58;;;20.00;99.90;;;;;;5005135;28;20351;-75
2022/07/12 07:39:07;;;;;;;2.20;1.20;;;20.00;99.90;;;;;;5019878;28;20237;-75
2022/07/12 07:41:55;;;;;;;2.58;1.25;;;20.00;99.90;;;;;;5017762;28;20722;-75
2022/07/12 07:44:44;;;;;;;4.28;1.60;;;20.10;99.90;;;;;;5011202;28;20224;-73
2022/07/12 07:47:52;;;;;;;4.80;1.08;;;20.40;99.90;;;;;;5002840;28;20217;-74
2022/07/12 07:51:01;;;;;;;3.70;1.30;;;20.40;99.90;;;;;;5017590;28;20225;-75
2022/07/12 07:53:50;;;;;;;1.92;1.27;;;20.60;99.90;;;;;;5014857;28;20317;-75
2022/07/12 07:56:40;;;;;;;2.13;1.20;;;20.90;99.90;;;;;;5014758;28;20229;-74
2022/07/12 07:59:28;;;;;;;5.13;1.10;;;20.90;99.90;;;;;;5013288;28;20737;-74
2022/07/12 08:02:17;;;;;;;1.38;0.93;;;20.80;99.90;;;;;;5017469;28;20229;-68
2022/07/12 08:05:07;;;;;;;2.22;1.10;;;20.40;99.90;;;;;;5019465;28;20300;-68
2022/07/12 08:07:59;;;;;;;2.45;0.90;;;20.30;99.90;;;;;;5017725;28;20224;-69
2022/07/12 08:10:50;;;;;;;2.60;1.27;;;20.30;99.90;;;;;;5004092;28;20233;-66
2022/07/12 08:13:40;;;;;;;2.17;1.05;;;20.80;99.90;;;;;;5013872;28;20291;-68
2022/07/12 08:16:28;;;;;;;3.63;1.20;;;20.90;99.90;;;;;;5016003;28;20228;-68
2022/07/12 08:19:18;;;;;;;2.05;1.50;;;20.70;99.90;;;;;;5020593;28;20704;-68
2022/07/12 08:22:06;;;;;;;3.17;1.67;;;21.10;99.90;;;;;;5020426;28;20322;-69
2022/07/12 08:24:55;;;;;;;1.88;1.33;;;21.20;99.90;;;;;;4998033;28;20232;-69
2022/07/12 08:27:44;;;;;;;2.63;1.42;;;21.50;99.90;;;;;;5017362;28;20326;-68
2022/07/12 08:30:37;;;;;;;5.80;1.35;;;21.80;99.90;;;;;;5017189;28;20236;-68
2022/07/12 08:33:33;;;;;;;2.83;1.10;;;21.40;99.90;;;;;;5005773;28;20217;-69
2022/07/12 08:36:21;;;;;;;4.95;1.10;;;20.90;99.90;;;;;;5013344;28;20221;-68
2022/07/12 08:39:10;;;;;;;2.10;1.20;;;21.10;99.90;;;;;;4998606;28;20230;-69
2022/07/12 08:41:59;;;;;;;1.48;1.27;;;21.40;99.90;;;;;;5016607;28;20253;-70
2022/07/12 08:44:55;;;;;;;3.95;1.33;;;21.40;99.90;;;;;;5013479;28;20214;-71
2022/07/12 08:47:45;;;;;;;3.65;1.08;;;21.80;99.90;;;;;;5008351;28;20214;-70
2022/07/12 08:50:34;;;;;;;7.88;1.23;;;21.80;99.90;;;;;;5013630;28;20263;-69
2022/07/12 08:53:31;;;;;;;3.35;1.30;;;21.90;99.90;;;;;;4994832;28;20767;-69
2022/07/12 08:56:33;;;;;;;1.92;1.23;;;21.90;99.90;;;;;;4996676;28;20240;-67
2022/07/12 08:59:22;;;;;;;5.13;2.25;;;21.90;99.90;;;;;;5016135;28;20324;-68
2022/07/12 09:02:11;;;;;;;4.32;1.20;;;21.80;99.90;;;;;;5003247;28;20699;-69
2022/07/12 09:05:11;;;;;;;1.60;1.10;;;21.80;99.90;;;;;;5016185;28;20228;-68
2022/07/12 09:08:04;;;;;;;1.10;1.00;;;22.10;99.90;;;;;;5023475;28;20690;-73
2022/07/12 09:10:59;;;;;;;3.50;1.05;;;22.20;99.90;;;;;;5016738;28;20229;-72
2022/07/12 09:13:51;;;;;;;1.85;1.10;;;21.90;99.90;;;;;;5014165;28;20231;-69
2022/07/12 09:16:40;;;;;;;2.28;1.30;;;22.00;99.90;;;;;;5020047;28;20244;-70
2022/07/12 09:19:29;;;;;;;2.33;1.35;;;22.50;99.90;;;;;;5014506;28;21280;-71
2022/07/12 09:22:23;;;;;;;2.85;1.23;;;22.40;99.90;;;;;;5018574;28;20339;-69
2022/07/12 09:25:18;;;;;;;3.10;1.25;;;22.40;99.90;;;;;;5003754;28;20665;-70
2022/07/12 09:28:08;;;;;;;3.45;1.05;;;22.70;99.90;;;;;;5018929;28;20236;-70
2022/07/12 09:30:57;;;;;;;4.72;1.17;;;22.80;99.90;;;;;;5007376;28;20252;-75
2022/07/12 09:37:09;;;;;;;2.08;1.30;;;22.60;99.90;;;;;;5020328;28;20221;-75
2022/07/12 09:40:00;;;;;;;4.15;1.67;;;22.60;99.90;;;;;;5024500;28;20702;-73
2022/07/12 09:42:50;;;;;;;4.00;1.10;;;22.40;99.90;;;;;;4999999;28;20328;-73
2022/07/12 09:45:41;;;;;;;2.63;1.20;;;22.20;99.90;;;;;;5016478;28;20706;-73
2022/07/12 09:48:30;;;;;;;1.35;1.17;;;22.30;99.90;;;;;;5013142;28;20844;-75
2022/07/12 09:51:21;;;;;;;3.50;1.30;;;22.30;99.90;;;;;;5000752;28;20305;-73
2022/07/12 09:54:15;;;;;;;2.08;1.35;;;22.20;99.90;;;;;;5020724;28;20221;-79
2022/07/12 09:57:18;;;;;;;2.85;1.90;;;22.30;99.90;;;;;;5019585;28;20218;-72
2022/07/12 10:00:11;;;;;;;1.20;1.00;;;22.30;99.90;;;;;;5019881;28;20260;-71
2022/07/12 10:03:00;;;;;;;4.65;1.13;;;22.40;99.90;;;;;;5013807;28;20312;-69
2022/07/12 10:05:51;;;;;;;2.03;1.42;;;22.50;99.90;;;;;;5011022;28;20225;-73
2022/07/12 10:08:40;;;;;;;4.80;1.50;;;22.30;99.90;;;;;;5016404;28;20225;-72
2022/07/12 10:11:30;;;;;;;7.00;1.42;;;22.30;99.90;;;;;;5000223;28;20804;-73
2022/07/12 10:14:43;;;;;;;84.90;10.82;;;22.40;99.90;;;;;;5013211;28;20738;-72
2022/07/12 10:17:35;;;;;;;4.30;1.70;;;22.40;99.90;;;;;;5003903;28;20217;-77
2022/07/12 10:20:26;;;;;;;4.75;1.73;;;22.20;99.90;;;;;;5010898;28;20753;-72
2022/07/12 10:23:35;;;;;;;5.10;1.42;;;22.10;99.90;;;;;;5010652;28;20240;-72
2022/07/12 10:26:41;;;;;;;5.28;1.63;;;22.30;99.90;;;;;;5013634;28;20845;-72
2022/07/12 10:29:30;;;;;;;11.85;2.20;;;22.20;99.90;;;;;;5000128;28;20957;-73
2022/07/12 10:32:24;;;;;;;5.47;1.40;;;22.20;99.90;;;;;;5007476;28;20226;-73
2022/07/12 10:35:16;;;;;;;11.93;1.83;;;22.20;99.90;;;;;;5002672;28;20260;-73
2022/07/12 10:38:21;;;;;;;1.55;1.17;;;22.20;99.90;;;;;;5014363;28;21560;-72
2022/07/12 10:41:19;;;;;;;2.72;1.58;;;22.20;99.90;;;;;;5003429;28;20945;-73
2022/07/12 10:44:08;;;;;;;7.50;1.80;;;22.30;99.90;;;;;;5013865;28;20792;-73
2022/07/12 10:47:01;;;;;;;4.43;1.30;;;22.20;99.90;;;;;;5010756;28;20221;-83
2022/07/12 10:49:55;;;;;;;2.38;1.00;;;22.30;99.90;;;;;;5017866;28;20327;-82
2022/07/12 10:52:43;;;;;;;3.05;1.13;;;22.00;99.90;;;;;;5003515;28;20742;-84
2022/07/12 10:55:32;;;;;;;4.03;1.20;;;21.90;99.90;;;;;;5020128;28;20221;-83
2022/07/12 10:58:31;;;;;;;6.32;1.17;;;21.90;99.90;;;;;;5002770;28;20278;-83
2022/07/12 11:01:22;;;;;;;1.88;1.25;;;21.80;99.90;;;;;;4998076;28;20226;-83
2022/07/12 11:04:11;;;;;;;6.18;1.30;;;21.70;99.90;;;;;;5018049;28;20232;-84
2022/07/12 11:07:04;;;;;;;28.77;2.75;;;21.70;99.90;;;;;;5011556;28;20304;-85
2022/07/12 11:09:54;;;;;;;34.75;3.65;;;21.70;99.90;;;;;;5015235;28;20228;-82
2022/07/12 11:12:42;;;;;;;47.38;4.90;;;21.80;99.90;;;;;;4991978;28;20313;-72
2022/07/12 11:15:31;;;;;;;11.18;1.40;;;21.80;99.90;;;;;;5012003;28;20228;-83
2022/07/12 11:18:29;;;;;;;14.43;1.58;;;21.60;99.90;;;;;;5017335;28;20692;-83
2022/07/12 11:21:18;;;;;;;8.75;1.48;;;21.50;99.90;;;;;;5018160;28;20233;-81
2022/07/12 11:24:22;;;;;;;1.73;0.90;;;21.40;99.90;;;;;;5009826;28;20726;-83
2022/07/12 11:27:14;;;;;;;5.72;1.30;;;21.50;99.90;;;;;;5003885;28;20233;-83
2022/07/12 11:30:06;;;;;;;8.77;1.20;;;21.50;99.90;;;;;;5018397;28;20332;-82
2022/07/12 11:32:54;;;;;;;7.60;1.00;;;21.60;99.90;;;;;;5019038;28;20262;-84
2022/07/12 11:35:45;;;;;;;2.97;0.90;;;21.80;99.90;;;;;;5019278;28;20222;-77
2022/07/12 11:38:35;;;;;;;3.85;1.10;;;22.00;99.90;;;;;;5029202;28;20700;-80
2022/07/12 11:41:32;;;;;;;3.25;1.10;;;22.00;99.90;;;;;;5014823;28;20303;-80
2022/07/12 11:44:21;;;;;;;6.95;1.02;;;21.90;99.90;;;;;;5006701;28;20313;-81
2022/07/12 11:47:10;;;;;;;3.22;1.10;;;21.50;99.90;;;;;;5018111;28;20593;-82
2022/07/12 11:49:59;;;;;;;3.40;0.98;;;21.60;99.90;;;;;;5016330;28;20233;-80
2022/07/12 11:52:49;;;;;;;2.60;1.08;;;21.80;99.90;;;;;;5001096;28;20217;-81
2022/07/12 11:55:43;;;;;;;3.53;1.30;;;21.80;99.90;;;;;;5012337;28;20213;-81
2022/07/12 11:58:37;;;;;;;2.00;1.05;;;21.80;99.90;;;;;;5018683;28;20214;-81
2022/07/12 12:01:27;;;;;;;5.93;1.50;;;21.80;99.90;;;;;;5022933;28;20683;-81
2022/07/12 12:04:15;;;;;;;3.40;1.00;;;21.80;99.90;;;;;;5015650;28;20708;-81
2022/07/12 12:07:05;;;;;;;2.58;1.20;;;21.80;99.90;;;;;;5020312;28;20309;-81
2022/07/12 12:10:02;;;;;;;4.20;1.55;;;22.00;99.90;;;;;;5018783;28;20226;-82
2022/07/12 12:12:52;;;;;;;1.15;0.80;;;22.00;99.90;;;;;;5022229;28;20225;-81
2022/07/12 12:15:52;;;;;;;5.18;1.08;;;22.00;99.90;;;;;;5031825;28;20235;-81
2022/07/12 12:18:43;;;;;;;1.40;0.70;;;22.20;99.90;;;;;;5008786;28;20222;-82
2022/07/12 12:21:35;;;;;;;3.83;1.10;;;22.20;99.90;;;;;;5020826;28;20214;-87
2022/07/12 12:24:24;;;;;;;4.03;0.93;;;22.20;99.90;;;;;;5042505;28;20355;-82
2022/07/12 12:27:24;;;;;;;1.50;1.02;;;22.10;99.90;;;;;;5047683;28;20473;-85
2022/07/12 12:30:14;;;;;;;2.17;0.70;;;22.00;99.90;;;;;;5025922;28;20217;-83
2022/07/12 12:33:06;;;;;;;2.88;0.80;;;21.80;99.90;;;;;;5038011;28;20304;-80
2022/07/12 12:35:55;;;;;;;1.60;0.82;;;21.80;99.90;;;;;;5029801;28;20218;-77
2022/07/12 12:38:44;;;;;;;1.42;0.85;;;21.70;99.90;;;;;;5017319;28;20225;-76
2022/07/12 12:41:40;;;;;;;2.83;0.70;;;21.80;99.90;;;;;;5019233;28;20678;-76
2022/07/12 12:44:34;;;;;;;3.42;1.20;;;21.90;99.90;;;;;;4998657;28;20225;-76
2022/07/12 12:47:31;;;;;;;3.53;1.00;;;21.90;99.90;;;;;;5027007;28;20249;-76
2022/07/12 12:53:19;;;;;;;3.08;0.80;;;21.90;99.90;;;;;;5069437;27;20622;-80
2022/07/12 12:56:10;;;;;;;4.95;0.90;;;21.60;99.90;;;;;;5056275;28;20240;-78
2022/07/12 12:59:00;;;;;;;2.38;0.80;;;21.50;99.90;;;;;;5037721;28;20315;-78
2022/07/12 13:01:49;;;;;;;5.88;1.10;;;21.50;99.90;;;;;;5039521;28;20220;-79
2022/07/12 13:04:43;;;;;;;0.82;0.80;;;21.60;99.90;;;;;;5035298;28;20328;-79
2022/07/12 13:07:34;;;;;;;1.83;1.10;;;21.70;99.90;;;;;;5050459;28;20220;-78
2022/07/12 13:10:25;;;;;;;1.98;1.00;;;21.80;99.90;;;;;;5030733;28;20222;-83
2022/07/12 13:13:14;;;;;;;3.30;0.90;;;21.60;99.90;;;;;;5051275;28;20311;-79
2022/07/12 13:16:07;;;;;;;1.42;0.73;;;21.70;99.90;;;;;;5051367;28;20221;-79
2022/07/12 13:18:56;;;;;;;2.90;0.80;;;21.70;99.90;;;;;;5071082;28;20310;-80
2022/07/12 13:21:45;;;;;;;4.07;1.17;;;21.70;99.90;;;;;;5077319;28;20896;-79
2022/07/12 13:24:34;;;;;;;3.70;1.02;;;21.80;99.90;;;;;;5068543;28;20227;-80
2022/07/12 13:27:24;;;;;;;2.20;0.98;;;21.80;99.90;;;;;;5076401;28;20342;-80
2022/07/12 13:30:14;;;;;;;2.17;1.13;;;21.80;99.90;;;;;;5064471;28;20222;-79
2022/07/12 13:33:04;;;;;;;6.25;1.08;;;21.80;99.90;;;;;;5080019;28;20729;-79
2022/07/12 13:35:53;;;;;;;2.53;1.02;;;21.80;99.90;;;;;;5068600;28;20628;-80
2022/07/12 13:38:42;;;;;;;5.93;1.10;;;21.80;99.90;;;;;;5083665;28;20216;-79
2022/07/12 13:41:31;;;;;;;1.27;0.90;;;21.90;99.90;;;;;;5064164;28;20710;-80
2022/07/12 13:44:21;;;;;;;2.38;0.90;;;21.90;99.90;;;;;;5074757;28;20251;-80
2022/07/12 13:47:10;;;;;;;3.38;1.10;;;21.80;99.90;;;;;;5083647;28;20224;-82
2022/07/12 13:49:59;;;;;;;3.13;1.17;;;21.70;99.90;;;;;;5060031;28;20718;-82
2022/07/12 13:52:49;;;;;;;3.88;1.15;;;21.60;99.90;;;;;;5078349;28;20732;-83
2022/07/12 13:55:38;;;;;;;2.92;0.80;;;21.60;99.90;;;;;;5067549;28;20694;-83
2022/07/12 13:58:27;;;;;;;4.63;1.42;;;21.50;99.90;;;;;;5095726;28;20224;-83
2022/07/12 14:01:17;;;;;;;1.48;0.93;;;21.50;99.90;;;;;;5073472;28;20305;-87
2022/07/12 14:04:07;;;;;;;2.90;0.93;;;21.40;99.90;;;;;;5065095;28;20216;-87
2022/07/12 14:06:57;;;;;;;1.85;0.90;;;21.50;99.90;;;;;;5057303;28;20231;-87
2022/07/12 14:09:45;;;;;;;2.88;0.90;;;21.40;99.90;;;;;;5077480;28;20217;-80
2022/07/12 14:12:36;;;;;;;4.80;0.93;;;21.40;99.90;;;;;;5063049;28;20310;-84
2022/07/12 14:15:37;;;;;;;1.40;1.00;;;21.30;99.90;;;;;;5056363;28;20612;-84
2022/07/12 14:18:27;;;;;;;4.47;1.02;;;21.30;99.90;;;;;;5069611;28;20225;-87
2022/07/12 14:21:16;;;;;;;2.97;1.02;;;21.30;99.90;;;;;;5068412;28;20389;-84
2022/07/12 14:24:05;;;;;;;1.10;0.90;;;21.30;99.90;;;;;;5054585;28;20362;-83
2022/07/12 14:26:54;;;;;;;3.75;0.85;;;21.20;99.90;;;;;;5050866;28;20428;-84
2022/07/12 14:29:43;;;;;;;1.58;1.08;;;21.20;99.90;;;;;;5065693;28;20216;-84
2022/07/12 14:32:32;;;;;;;2.88;1.00;;;21.20;99.90;;;;;;5052425;28;20231;-84
2022/07/12 14:35:22;;;;;;;3.75;1.00;;;21.20;99.90;;;;;;5077796;28;20212;-83
2022/07/12 14:38:11;;;;;;;2.70;1.00;;;21.20;99.90;;;;;;5075714;28;20226;-84
2022/07/12 14:40:59;;;;;;;1.00;0.90;;;21.20;99.90;;;;;;5068940;28;20217;-81
2022/07/12 14:43:49;;;;;;;3.58;1.00;;;21.20;99.90;;;;;;5057665;28;20217;-80
2022/07/12 14:46:38;;;;;;;2.40;0.93;;;21.30;99.90;;;;;;5055086;28;20592;-79
2022/07/12 14:49:27;;;;;;;3.38;1.10;;;21.30;99.90;;;;;;5050334;28;20590;-80
2022/07/12 14:52:19;;;;;;;1.45;1.13;;;21.30;99.90;;;;;;5045459;28;20325;-80
2022/07/12 14:55:08;;;;;;;3.03;0.90;;;21.20;99.90;;;;;;5062021;28;20266;-80